Wetterdaten: Woche 11.04.16 - 17.04.16 (KW15)
Datum Zeit Temp. A. Feuchte A. Luftdruck Regen Wind Richtung Sonnenschein ET UV Solar Taupunkt Windchill Windben Empfang
11.04.2016 00:00 5,9 C 87 % 1012,5 hPa 0,0 l/m 8,7 km/h (2 Bft) NO 0,00 h 0,000 mm 0,0 UV-I 0 W/m 3,9 C 4,0 C 11,7 km/h (2 Bft) 98,39 %
11.04.2016 01:00 5,3 C 87 % 1012,6 hPa 0,0 l/m 7,2 km/h (2 Bft) NO 0,00 h 0,000 mm 0,0 UV-I 0 W/m 3,3 C 4,4 C 10,2 km/h (2 Bft) 98,67 %
11.04.2016 02:00 4,8 C 87 % 1012,5 hPa 0,0 l/m 8,5 km/h (2 Bft) NO 0,00 h 0,000 mm 0,0 UV-I 0 W/m 2,9 C 3,0 C 12,0 km/h (2 Bft) 98,22 %
11.04.2016 03:00 4,7 C 85 % 1012,6 hPa 0,0 l/m 7,7 km/h (2 Bft) O-NO 0,00 h 0,000 mm 0,0 UV-I 0 W/m 2,5 C 3,5 C 10,9 km/h (2 Bft) 98,44 %
11.04.2016 04:00 4,0 C 87 % 1012,7 hPa 0,0 l/m 6,6 km/h (2 Bft) O-NO 0,00 h 0,000 mm 0,0 UV-I 0 W/m 2,1 C 3,2 C 9,2 km/h (2 Bft) 98,53 %
11.04.2016 05:00 3,7 C 88 % 1012,9 hPa 0,0 l/m 6,6 km/h (2 Bft) O-NO 0,00 h 0,000 mm 0,0 UV-I 0 W/m 1,9 C 3,2 C 9,0 km/h (2 Bft) 98,18 %
11.04.2016 06:00 3,5 C 90 % 1013,0 hPa 0,0 l/m 7,3 km/h (2 Bft) NO 0,00 h 0,000 mm 0,0 UV-I 15 W/m 2,0 C 2,6 C 10,1 km/h (2 Bft) 99,30 %
11.04.2016 07:00 4,8 C 89 % 1013,3 hPa 0,0 l/m 9,3 km/h (2 Bft) O-NO 0,12 h 0,000 mm 0,0 UV-I 86 W/m 3,1 C 2,4 C 13,5 km/h (3 Bft) 98,03 %
11.04.2016 08:00 6,2 C 85 % 1013,4 hPa 0,0 l/m 11,9 km/h (2 Bft) O-NO 0,33 h 0,051 mm 0,6 UV-I 184 W/m 3,8 C 2,4 C 16,0 km/h (3 Bft) 99,14 %
11.04.2016 09:00 7,4 C 79 % 1013,4 hPa 0,0 l/m 14,8 km/h (3 Bft) NO 1,00 h 0,101 mm 1,1 UV-I 322 W/m 4,0 C 2,1 C 19,6 km/h (3 Bft) 98,04 %
11.04.2016 10:00 8,4 C 76 % 1013,3 hPa 0,0 l/m 13,2 km/h (3 Bft) NO 0,78 h 0,178 mm 2,0 UV-I 456 W/m 4,5 C 4,2 C 18,3 km/h (3 Bft) 98,79 %
11.04.2016 11:00 9,7 C 74 % 1013,2 hPa 0,0 l/m 13,8 km/h (3 Bft) O-NO 0,77 h 0,229 mm 2,8 UV-I 652 W/m 5,2 C 5,4 C 19,0 km/h (3 Bft) 99,39 %
11.04.2016 12:00 11,1 C 72 % 1012,5 hPa 0,0 l/m 13,1 km/h (3 Bft) NO 1,00 h 0,330 mm 3,7 UV-I 772 W/m 6,2 C 7,3 C 18,2 km/h (3 Bft) 98,03 %
11.04.2016 13:00 12,2 C 70 % 1011,7 hPa 0,0 l/m 13,4 km/h (3 Bft) NO 1,00 h 0,381 mm 3,8 UV-I 768 W/m 6,9 C 8,5 C 19,1 km/h (3 Bft) 99,09 %
11.04.2016 14:00 13,5 C 68 % 1011,1 hPa 0,0 l/m 12,5 km/h (3 Bft) NO 1,00 h 0,406 mm 3,3 UV-I 724 W/m 7,8 C 10,5 C 17,9 km/h (3 Bft) 98,41 %
11.04.2016 15:00 14,4 C 65 % 1010,4 hPa 0,0 l/m 13,1 km/h (3 Bft) O-NO 1,00 h 0,407 mm 2,5 UV-I 635 W/m 7,8 C 11,2 C 18,6 km/h (3 Bft) 98,84 %
11.04.2016 16:00 15,0 C 59 % 1009,8 hPa 0,0 l/m 12,9 km/h (3 Bft) NO 1,00 h 0,381 mm 1,6 UV-I 502 W/m 7,1 C 12,0 C 17,5 km/h (3 Bft) 98,59 %
11.04.2016 17:00 15,2 C 58 % 1009,5 hPa 0,0 l/m 14,0 km/h (3 Bft) O-NO 1,00 h 0,330 mm 0,8 UV-I 340 W/m 6,9 C 11,8 C 19,0 km/h (3 Bft) 98,63 %
11.04.2016 18:00 14,7 C 64 % 1009,4 hPa 0,0 l/m 13,4 km/h (3 Bft) O-NO 0,88 h 0,254 mm 0,0 UV-I 151 W/m 8,0 C 11,4 C 18,2 km/h (3 Bft) 98,86 %
11.04.2016 19:00 12,8 C 70 % 1009,7 hPa 0,0 l/m 15,9 km/h (3 Bft) O-NO 0,05 h 0,127 mm 0,0 UV-I 19 W/m 7,4 C 8,3 C 21,2 km/h (4 Bft) 98,17 %
11.04.2016 20:00 11,0 C 79 % 1010,4 hPa 0,0 l/m 13,7 km/h (3 Bft) O-NO 0,00 h 0,076 mm 0,0 UV-I 0 W/m 7,4 C 7,0 C 18,8 km/h (3 Bft) 98,65 %
11.04.2016 21:00 9,8 C 83 % 1011,0 hPa 0,0 l/m 16,4 km/h (3 Bft) O-NO 0,00 h 0,026 mm 0,0 UV-I 0 W/m 7,0 C 4,4 C 21,8 km/h (4 Bft) 98,25 %
11.04.2016 22:00 8,6 C 86 % 1011,4 hPa 0,0 l/m 10,3 km/h (2 Bft) O-NO 0,00 h 0,025 mm 0,0 UV-I 0 W/m 6,5 C 6,2 C 13,9 km/h (3 Bft) 98,38 %
11.04.2016 23:00 7,7 C 89 % 1011,5 hPa 0,0 l/m 6,6 km/h (2 Bft) O-NO 0,00 h 0,025 mm 0,0 UV-I 0 W/m 6,0 C 7,1 C 9,3 km/h (2 Bft) 98,67 %
12.04.2016 00:00 6,9 C 91 % 1011,4 hPa 0,0 l/m 4,3 km/h (1 Bft) NO 0,00 h 0,000 mm 0,0 UV-I 0 W/m 5,6 C 6,9 C 6,0 km/h (2 Bft) 98,34 %
12.04.2016 01:00 6,6 C 93 % 1011,3 hPa 0,0 l/m 3,8 km/h (1 Bft) O-NO 0,00 h 0,000 mm 0,0 UV-I 0 W/m 5,5 C 6,6 C 5,4 km/h (1 Bft) 98,50 %
12.04.2016 02:00 6,1 C 94 % 1011,2 hPa 0,0 l/m 1,1 km/h (0 Bft) O-NO 0,00 h 0,000 mm 0,0 UV-I 0 W/m 5,1 C 6,1 C 1,9 km/h (1 Bft) 98,17 %
12.04.2016 03:00 5,3 C 95 % 1010,8 hPa 0,0 l/m 1,5 km/h (1 Bft) O-NO 0,00 h 0,000 mm 0,0 UV-I 0 W/m 4,5 C 5,3 C 2,3 km/h (1 Bft) 99,36 %
12.04.2016 04:00 5,8 C 95 % 1010,4 hPa 0,0 l/m 1,4 km/h (1 Bft) O-NO 0,00 h 0,000 mm 0,0 UV-I 0 W/m 5,1 C 5,8 C 2,5 km/h (1 Bft) 98,33 %
12.04.2016 05:00 6,9 C 93 % 1010,0 hPa 0,0 l/m 1,5 km/h (1 Bft) O-NO 0,00 h 0,000 mm 0,0 UV-I 0 W/m 5,9 C 6,9 C 2,4 km/h (1 Bft) 99,31 %
12.04.2016 06:00 7,0 C 94 % 1010,5 hPa 0,0 l/m 2,2 km/h (1 Bft) S 0,00 h 0,000 mm 0,0 UV-I 11 W/m 6,1 C 7,0 C 3,5 km/h (1 Bft) 97,63 %
12.04.2016 07:00 7,5 C 94 % 1010,8 hPa 0,0 l/m 2,3 km/h (1 Bft) S 0,00 h 0,000 mm 0,0 UV-I 59 W/m 6,6 C 7,5 C 3,5 km/h (1 Bft) 99,41 %
12.04.2016 08:00 8,6 C 92 % 1010,6 hPa 0,0 l/m 2,6 km/h (1 Bft) O-NO 0,00 h 0,025 mm 0,0 UV-I 134 W/m 7,4 C 8,6 C 4,0 km/h (1 Bft) 97,51 %
12.04.2016 09:00 9,3 C 90 % 1010,8 hPa 0,0 l/m 3,1 km/h (1 Bft) O-NO 0,00 h 0,051 mm 0,5 UV-I 148 W/m 7,7 C 9,3 C 4,8 km/h (1 Bft) 98,91 %
12.04.2016 10:00 9,6 C 89 % 1011,6 hPa 0,0 l/m 4,4 km/h (1 Bft) W-SW 0,00 h 0,076 mm 0,5 UV-I 117 W/m 7,9 C 9,5 C 6,8 km/h (2 Bft) 97,86 %
12.04.2016 11:00 10,9 C 87 % 1012,2 hPa 0,0 l/m 8,4 km/h (2 Bft) SW 0,77 h 0,051 mm 2,2 UV-I 583 W/m 8,8 C 9,5 C 12,4 km/h (3 Bft) 99,24 %
12.04.2016 12:00 11,2 C 84 % 1012,5 hPa 0,0 l/m 9,0 km/h (2 Bft) W-SW 0,12 h 0,280 mm 1,6 UV-I 277 W/m 8,5 C 9,5 C 13,4 km/h (3 Bft) 98,22 %
12.04.2016 13:00 11,5 C 84 % 1012,8 hPa 0,0 l/m 13,8 km/h (3 Bft) SW 0,00 h 0,152 mm 1,3 UV-I 234 W/m 8,8 C 7,6 C 20,2 km/h (4 Bft) 99,55 %
12.04.2016 14:00 13,3 C 80 % 1012,5 hPa 0,0 l/m 9,1 km/h (2 Bft) SW 0,48 h 0,127 mm 2,3 UV-I 492 W/m 9,8 C 11,5 C 13,7 km/h (3 Bft) 97,88 %
12.04.2016 15:00 15,2 C 67 % 1011,9 hPa 0,0 l/m 7,0 km/h (2 Bft) W 0,62 h 0,254 mm 2,1 UV-I 478 W/m 9,2 C 14,4 C 10,7 km/h (2 Bft) 98,98 %
12.04.2016 16:00 15,2 C 66 % 1011,2 hPa 0,0 l/m 2,7 km/h (1 Bft) W-SW 0,58 h 0,279 mm 1,3 UV-I 344 W/m 8,9 C 15,2 C 4,7 km/h (1 Bft) 98,41 %
12.04.2016 17:00 15,7 C 66 % 1010,7 hPa 0,0 l/m 2,8 km/h (1 Bft) W 0,98 h 0,204 mm 0,7 UV-I 337 W/m 9,3 C 15,6 C 4,9 km/h (1 Bft) 98,78 %
12.04.2016 18:00 15,1 C 67 % 1010,3 hPa 0,0 l/m 1,7 km/h (1 Bft) SW 0,73 h 0,203 mm 0,0 UV-I 136 W/m 9,1 C 15,1 C 3,1 km/h (1 Bft) 98,39 %
12.04.2016 19:00 13,7 C 73 % 1009,9 hPa 0,0 l/m 1,9 km/h (1 Bft) N 0,05 h 0,076 mm 0,0 UV-I 24 W/m 8,9 C 13,7 C 3,0 km/h (1 Bft) 99,20 %
12.04.2016 20:00 11,8 C 80 % 1009,8 hPa 0,0 l/m 4,1 km/h (1 Bft) O-NO 0,00 h 0,025 mm 0,0 UV-I 0 W/m 8,4 C 11,8 C 5,3 km/h (1 Bft) 98,00 %
12.04.2016 21:00 10,8 C 83 % 1009,7 hPa 0,0 l/m 3,2 km/h (1 Bft) O-NO 0,00 h 0,026 mm 0,0 UV-I 0 W/m 8,1 C 10,8 C 4,8 km/h (1 Bft) 99,61 %
12.04.2016 22:00 8,8 C 90 % 1009,4 hPa 0,0 l/m 2,2 km/h (1 Bft) SO 0,00 h 0,000 mm 0,0 UV-I 0 W/m 7,2 C 8,8 C 3,6 km/h (1 Bft) 97,92 %
12.04.2016 23:00 7,9 C 92 % 1009,2 hPa 0,0 l/m 1,1 km/h (1 Bft) SO 0,00 h 0,000 mm 0,0 UV-I 0 W/m 6,8 C 7,9 C 1,9 km/h (1 Bft) 99,30 %
13.04.2016 00:00 7,7 C 94 % 1008,9 hPa 0,0 l/m 1,0 km/h (0 Bft) SO 0,00 h 0,000 mm 0,0 UV-I 0 W/m 6,8 C 7,7 C 1,5 km/h (1 Bft) 98,38 %
13.04.2016 01:00 6,8 C 95 % 1008,6 hPa 0,0 l/m 0,2 km/h (0 Bft) SO 0,00 h 0,000 mm 0,0 UV-I 0 W/m 6,1 C 6,8 C 0,8 km/h (0 Bft) 98,91 %
13.04.2016 02:00 6,6 C 96 % 1008,5 hPa 0,0 l/m 1,0 km/h (0 Bft) SO 0,00 h 0,000 mm 0,0 UV-I 0 W/m 6,0 C 6,6 C 1,7 km/h (1 Bft) 98,35 %
13.04.2016 03:00 6,2 C 96 % 1008,4 hPa 0,0 l/m 1,5 km/h (1 Bft) SO 0,00 h 0,000 mm 0,0 UV-I 0 W/m 5,6 C 6,2 C 2,4 km/h (1 Bft) 98,40 %
13.04.2016 04:00 5,8 C 96 % 1008,4 hPa 0,0 l/m 2,8 km/h (1 Bft) S-SO 0,00 h 0,000 mm 0,0 UV-I 0 W/m 5,2 C 5,7 C 4,4 km/h (1 Bft) 99,07 %
13.04.2016 05:00 5,3 C 96 % 1008,4 hPa 0,0 l/m 2,0 km/h (1 Bft) S-SW 0,00 h 0,000 mm 0,0 UV-I 0 W/m 4,7 C 5,3 C 3,3 km/h (1 Bft) 98,53 %
13.04.2016 06:00 5,0 C 96 % 1008,5 hPa 0,0 l/m 2,1 km/h (1 Bft) S 0,00 h 0,000 mm 0,0 UV-I 16 W/m 4,4 C 5,0 C 3,4 km/h (1 Bft) 99,25 %
13.04.2016 07:00 6,0 C 96 % 1008,7 hPa 0,0 l/m 3,7 km/h (1 Bft) S 0,15 h 0,000 mm 0,0 UV-I 79 W/m 5,3 C 6,0 C 5,1 km/h (1 Bft) 98,27 %
13.04.2016 08:00 8,5 C 91 % 1008,4 hPa 0,0 l/m 4,1 km/h (1 Bft) S 0,87 h 0,025 mm 0,7 UV-I 239 W/m 7,1 C 8,5 C 6,1 km/h (2 Bft) 99,47 %
13.04.2016 09:00 11,5 C 82 % 1007,9 hPa 0,0 l/m 3,8 km/h (1 Bft) W-SW 1,00 h 0,102 mm 1,4 UV-I 436 W/m 8,5 C 11,4 C 6,2 km/h (2 Bft) 98,27 %
13.04.2016 10:00 13,1 C 79 % 1007,5 hPa 0,0 l/m 3,4 km/h (1 Bft) N-NO 1,00 h 0,229 mm 2,5 UV-I 577 W/m 9,5 C 13,0 C 5,8 km/h (2 Bft) 99,03 %
13.04.2016 11:00 14,4 C 77 % 1006,9 hPa 0,0 l/m 5,0 km/h (1 Bft) NO 1,00 h 0,304 mm 3,5 UV-I 688 W/m 10,4 C 14,2 C 7,8 km/h (2 Bft) 98,55 %
13.04.2016 12:00 15,9 C 72 % 1005,9 hPa 0,0 l/m 3,6 km/h (1 Bft) NO 1,00 h 0,356 mm 4,0 UV-I 741 W/m 10,9 C 15,9 C 6,5 km/h (2 Bft) 98,53 %
13.04.2016 13:00 17,3 C 66 % 1005,0 hPa 0,0 l/m 5,7 km/h (1 Bft) N-NO 1,00 h 0,406 mm 4,1 UV-I 753 W/m 10,8 C 16,9 C 9,7 km/h (2 Bft) 98,84 %
13.04.2016 14:00 18,5 C 58 % 1004,2 hPa 0,0 l/m 6,7 km/h (2 Bft) N-NO 0,97 h 0,432 mm 3,6 UV-I 775 W/m 10,1 C 18,0 C 10,5 km/h (2 Bft) 98,67 %
13.04.2016 15:00 19,3 C 51 % 1003,3 hPa 0,0 l/m 8,1 km/h (2 Bft) O-NO 1,00 h 0,432 mm 2,6 UV-I 623 W/m 8,8 C 18,5 C 11,9 km/h (2 Bft) 99,19 %
13.04.2016 16:00 19,5 C 50 % 1002,4 hPa 0,0 l/m 9,6 km/h (2 Bft) O-NO 0,88 h 0,406 mm 1,5 UV-I 448 W/m 8,7 C 18,2 C 13,6 km/h (3 Bft) 98,32 %
13.04.2016 17:00 18,8 C 54 % 1001,9 hPa 0,0 l/m 10,5 km/h (2 Bft) O-NO 0,47 h 0,305 mm 0,7 UV-I 220 W/m 9,3 C 17,2 C 15,0 km/h (3 Bft) 98,96 %
13.04.2016 18:00 17,2 C 60 % 1001,6 hPa 0,0 l/m 7,3 km/h (2 Bft) O-NO 0,00 h 0,178 mm 0,0 UV-I 31 W/m 9,3 C 16,7 C 10,8 km/h (2 Bft) 98,76 %
13.04.2016 19:00 13,3 C 75 % 1004,3 hPa 4,6 l/m 23,2 km/h (4 Bft) W-SW 0,00 h 0,051 mm 0,0 UV-I 0 W/m 8,7 C 7,0 C 33,4 km/h (5 Bft) 99,05 %
13.04.2016 20:00 9,9 C 91 % 1006,3 hPa 3,4 l/m 18,3 km/h (3 Bft) W-SW 0,00 h 0,076 mm 0,0 UV-I 0 W/m 8,5 C 3,9 C 26,2 km/h (4 Bft) 98,64 %
13.04.2016 21:00 9,8 C 92 % 1006,6 hPa 0,0 l/m 15,2 km/h (3 Bft) SW 0,00 h 0,025 mm 0,0 UV-I 0 W/m 8,6 C 4,9 C 22,0 km/h (4 Bft) 99,29 %
13.04.2016 22:00 9,9 C 91 % 1007,0 hPa 0,0 l/m 15,5 km/h (3 Bft) W-SW 0,00 h 0,026 mm 0,0 UV-I 0 W/m 8,5 C 4,9 C 21,9 km/h (4 Bft) 98,49 %
13.04.2016 23:00 9,8 C 92 % 1007,5 hPa 0,0 l/m 12,8 km/h (3 Bft) W-SW 0,00 h 0,025 mm 0,0 UV-I 0 W/m 8,5 C 6,0 C 18,2 km/h (3 Bft) 98,56 %
14.04.2016 00:00 9,6 C 92 % 1007,4 hPa 0,0 l/m 8,8 km/h (2 Bft) W-SW 0,00 h 0,000 mm 0,0 UV-I 0 W/m 8,3 C 7,9 C 13,0 km/h (3 Bft) 98,54 %
14.04.2016 01:00 9,7 C 90 % 1007,0 hPa 0,0 l/m 9,0 km/h (2 Bft) W-SW 0,00 h 0,000 mm 0,0 UV-I 0 W/m 8,2 C 7,9 C 12,8 km/h (3 Bft) 98,31 %
14.04.2016 02:00 9,6 C 90 % 1006,8 hPa 0,0 l/m 7,8 km/h (2 Bft) SW 0,00 h 0,000 mm 0,0 UV-I 0 W/m 8,1 C 8,6 C 11,0 km/h (2 Bft) 99,22 %
14.04.2016 03:00 9,6 C 90 % 1006,9 hPa 0,0 l/m 5,7 km/h (1 Bft) W-SW 0,00 h 0,000 mm 0,0 UV-I 0 W/m 8,0 C 9,5 C 7,8 km/h (2 Bft) 98,28 %
14.04.2016 04:00 9,4 C 91 % 1007,1 hPa 0,0 l/m 7,9 km/h (2 Bft) SW 0,00 h 0,000 mm 0,0 UV-I 0 W/m 8,0 C 8,3 C 11,2 km/h (2 Bft) 99,35 %
14.04.2016 05:00 9,3 C 91 % 1007,2 hPa 0,0 l/m 7,6 km/h (2 Bft) W-SW 0,00 h 0,000 mm 0,0 UV-I 0 W/m 7,9 C 8,1 C 11,1 km/h (2 Bft) 97,52 %
14.04.2016 06:00 9,2 C 91 % 1007,3 hPa 0,0 l/m 8,8 km/h (2 Bft) W-SW 0,00 h 0,000 mm 0,0 UV-I 7 W/m 7,8 C 7,5 C 12,8 km/h (3 Bft) 99,51 %
14.04.2016 07:00 9,3 C 91 % 1007,7 hPa 0,0 l/m 10,8 km/h (2 Bft) W-SW 0,00 h 0,000 mm 0,0 UV-I 27 W/m 7,8 C 6,4 C 15,3 km/h (3 Bft) 98,04 %
14.04.2016 08:00 9,7 C 88 % 1008,2 hPa 0,0 l/m 11,7 km/h (2 Bft) W-SW 0,00 h 0,025 mm 0,0 UV-I 49 W/m 7,7 C 6,4 C 16,5 km/h (3 Bft) 99,22 %
14.04.2016 09:00 9,7 C 85 % 1008,9 hPa 0,0 l/m 15,2 km/h (3 Bft) W-SW 0,00 h 0,051 mm 0,4 UV-I 81 W/m 7,3 C 4,8 C 21,2 km/h (4 Bft) 97,88 %
14.04.2016 10:00 9,5 C 83 % 1009,5 hPa 0,0 l/m 14,9 km/h (3 Bft) W-SW 0,00 h 0,051 mm 0,9 UV-I 75 W/m 6,8 C 4,7 C 20,5 km/h (4 Bft) 99,45 %
14.04.2016 11:00 10,5 C 80 % 1009,9 hPa 0,0 l/m 13,6 km/h (3 Bft) W 0,15 h 0,051 mm 1,4 UV-I 241 W/m 7,2 C 6,5 C 19,5 km/h (3 Bft) 97,60 %
14.04.2016 12:00 11,3 C 76 % 1010,3 hPa 0,0 l/m 18,7 km/h (3 Bft) W-SW 0,00 h 0,152 mm 1,6 UV-I 308 W/m 7,2 C 5,4 C 26,2 km/h (4 Bft) 99,56 %
14.04.2016 13:00 11,7 C 73 % 1010,5 hPa 0,0 l/m 16,5 km/h (3 Bft) W-SW 0,37 h 0,203 mm 2,0 UV-I 378 W/m 7,1 C 6,7 C 23,7 km/h (4 Bft) 97,72 %
14.04.2016 14:00 12,4 C 68 % 1010,8 hPa 0,0 l/m 16,1 km/h (3 Bft) W 0,48 h 0,229 mm 1,9 UV-I 388 W/m 6,6 C 7,8 C 23,3 km/h (4 Bft) 99,26 %
14.04.2016 15:00 12,6 C 62 % 1010,9 hPa 0,0 l/m 19,4 km/h (3 Bft) W-SW 0,55 h 0,254 mm 2,0 UV-I 455 W/m 5,5 C 6,9 C 27,1 km/h (4 Bft) 98,36 %
14.04.2016 16:00 12,1 C 67 % 1011,1 hPa 0,0 l/m 17,3 km/h (3 Bft) W-SW 0,13 h 0,330 mm 0,9 UV-I 195 W/m 6,2 C 7,0 C 24,8 km/h (4 Bft) 98,43 %
14.04.2016 17:00 11,6 C 74 % 1011,4 hPa 0,0 l/m 15,1 km/h (3 Bft) W-SW 0,22 h 0,153 mm 0,6 UV-I 178 W/m 7,2 C 7,2 C 21,3 km/h (4 Bft) 97,95 %
14.04.2016 18:00 11,7 C 71 % 1011,6 hPa 0,0 l/m 16,7 km/h (3 Bft) W-SW 0,72 h 0,127 mm 0,0 UV-I 138 W/m 6,7 C 6,6 C 23,3 km/h (4 Bft) 98,32 %
14.04.2016 19:00 10,8 C 75 % 1012,0 hPa 0,0 l/m 10,1 km/h (2 Bft) SW 0,48 h 0,127 mm 0,0 UV-I 34 W/m 6,4 C 8,5 C 14,7 km/h (3 Bft) 98,89 %
14.04.2016 20:00 9,6 C 77 % 1012,6 hPa 0,0 l/m 10,1 km/h (2 Bft) SW 0,00 h 0,050 mm 0,0 UV-I 0 W/m 5,8 C 7,3 C 15,0 km/h (3 Bft) 98,75 %
14.04.2016 21:00 8,9 C 81 % 1013,0 hPa 0,0 l/m 8,8 km/h (2 Bft) SW 0,00 h 0,026 mm 0,0 UV-I 0 W/m 5,7 C 7,1 C 12,3 km/h (3 Bft) 98,56 %
14.04.2016 22:00 8,2 C 83 % 1013,0 hPa 0,0 l/m 6,6 km/h (2 Bft) SW 0,00 h 0,025 mm 0,0 UV-I 0 W/m 5,4 C 7,7 C 9,3 km/h (2 Bft) 99,01 %
14.04.2016 23:00 7,0 C 86 % 1013,0 hPa 0,0 l/m 1,4 km/h (1 Bft) S-SW 0,00 h 0,026 mm 0,0 UV-I 0 W/m 4,9 C 7,0 C 2,5 km/h (1 Bft) 97,85 %
15.04.2016 00:00 5,9 C 88 % 1012,7 hPa 0,0 l/m 0,5 km/h (0 Bft) S 0,00 h 0,000 mm 0,0 UV-I 0 W/m 4,1 C 5,9 C 1,0 km/h (0 Bft) 98,92 %
15.04.2016 01:00 4,6 C 92 % 1012,4 hPa 0,0 l/m 1,0 km/h (0 Bft) S 0,00 h 0,000 mm 0,0 UV-I 0 W/m 3,5 C 4,6 C 1,8 km/h (1 Bft) 98,03 %
15.04.2016 02:00 3,9 C 94 % 1012,0 hPa 0,0 l/m 2,0 km/h (1 Bft) S 0,00 h 0,000 mm 0,0 UV-I 0 W/m 3,0 C 3,9 C 3,0 km/h (1 Bft) 99,43 %
15.04.2016 03:00 3,9 C 93 % 1012,0 hPa 0,0 l/m 1,4 km/h (1 Bft) S-SO 0,00 h 0,000 mm 0,0 UV-I 0 W/m 2,9 C 3,9 C 2,3 km/h (1 Bft) 97,93 %
15.04.2016 04:00 3,2 C 94 % 1011,7 hPa 0,0 l/m 1,3 km/h (1 Bft) O 0,00 h 0,000 mm 0,0 UV-I 0 W/m 2,4 C 3,2 C 2,2 km/h (1 Bft) 99,07 %
15.04.2016 05:00 3,0 C 95 % 1011,0 hPa 0,0 l/m 3,3 km/h (1 Bft) O-NO 0,00 h 0,000 mm 0,0 UV-I 0 W/m 2,2 C 3,0 C 4,3 km/h (1 Bft) 97,39 %
15.04.2016 06:00 3,2 C 95 % 1010,7 hPa 0,0 l/m 3,2 km/h (1 Bft) O-NO 0,47 h 0,000 mm 0,0 UV-I 31 W/m 2,5 C 3,2 C 4,4 km/h (1 Bft) 98,83 %
15.04.2016 07:00 4,7 C 95 % 1010,3 hPa 0,0 l/m 5,4 km/h (1 Bft) O-NO 0,35 h 0,025 mm 0,0 UV-I 88 W/m 4,0 C 4,4 C 7,6 km/h (2 Bft) 98,07 %
15.04.2016 08:00 6,2 C 92 % 1010,1 hPa 0,0 l/m 4,7 km/h (1 Bft) O-NO 0,47 h 0,026 mm 0,6 UV-I 206 W/m 5,0 C 6,0 C 6,7 km/h (2 Bft) 99,17 %
15.04.2016 09:00 7,7 C 89 % 1009,4 hPa 0,0 l/m 4,9 km/h (1 Bft) N-NO 0,28 h 0,101 mm 0,9 UV-I 264 W/m 6,0 C 7,6 C 7,4 km/h (2 Bft) 97,91 %
15.04.2016 10:00 9,1 C 83 % 1008,7 hPa 0,0 l/m 5,6 km/h (1 Bft) O-NO 0,53 h 0,127 mm 1,5 UV-I 346 W/m 6,3 C 8,8 C 8,2 km/h (2 Bft) 99,36 %
15.04.2016 11:00 10,3 C 79 % 1008,5 hPa 0,0 l/m 3,9 km/h (1 Bft) O-NO 0,28 h 0,178 mm 1,5 UV-I 313 W/m 6,8 C 10,2 C 5,7 km/h (1 Bft) 98,34 %
15.04.2016 12:00 10,8 C 79 % 1008,4 hPa 0,0 l/m 1,9 km/h (1 Bft) NO 0,07 h 0,153 mm 1,5 UV-I 283 W/m 7,4 C 10,8 C 3,7 km/h (1 Bft) 99,56 %
15.04.2016 13:00 12,1 C 75 % 1008,4 hPa 0,0 l/m 2,4 km/h (1 Bft) NW 0,48 h 0,152 mm 2,4 UV-I 450 W/m 7,8 C 12,1 C 4,3 km/h (1 Bft) 97,68 %
15.04.2016 14:00 13,1 C 70 % 1009,1 hPa 0,0 l/m 7,8 km/h (2 Bft) W 0,18 h 0,229 mm 1,8 UV-I 336 W/m 7,6 C 11,9 C 13,5 km/h (3 Bft) 99,27 %
15.04.2016 15:00 12,6 C 69 % 1010,1 hPa 0,0 l/m 13,3 km/h (3 Bft) W 0,15 h 0,203 mm 1,2 UV-I 250 W/m 7,0 C 9,1 C 20,2 km/h (4 Bft) 97,84 %
15.04.2016 16:00 12,8 C 71 % 1010,5 hPa 0,0 l/m 11,1 km/h (2 Bft) W-SW 0,32 h 0,178 mm 1,0 UV-I 265 W/m 7,6 C 10,2 C 16,0 km/h (3 Bft) 98,61 %
15.04.2016 17:00 12,8 C 72 % 1010,2 hPa 0,0 l/m 6,9 km/h (2 Bft) S-SW 0,18 h 0,177 mm 0,6 UV-I 168 W/m 7,9 C 12,2 C 10,3 km/h (2 Bft) 98,18 %
15.04.2016 18:00 12,7 C 73 % 1009,7 hPa 0,0 l/m 5,7 km/h (1 Bft) S 0,00 h 0,102 mm 0,0 UV-I 76 W/m 8,0 C 12,4 C 9,0 km/h (2 Bft) 99,66 %
15.04.2016 19:00 11,8 C 78 % 1008,8 hPa 0,0 l/m 2,6 km/h (1 Bft) S-SO 0,00 h 0,051 mm 0,0 UV-I 27 W/m 8,1 C 11,8 C 4,4 km/h (1 Bft) 98,18 %
15.04.2016 20:00 10,7 C 79 % 1008,6 hPa 0,0 l/m 1,7 km/h (1 Bft) S-SO 0,00 h 0,025 mm 0,0 UV-I 0 W/m 7,3 C 10,7 C 3,3 km/h (1 Bft) 99,66 %
15.04.2016 21:00 8,5 C 87 % 1008,6 hPa 0,0 l/m 1,6 km/h (1 Bft) S-SO 0,00 h 0,000 mm 0,0 UV-I 0 W/m 6,4 C 8,5 C 3,0 km/h (1 Bft) 98,01 %
15.04.2016 22:00 9,0 C 83 % 1008,4 hPa 0,0 l/m 3,7 km/h (1 Bft) S-SO 0,00 h 0,000 mm 0,0 UV-I 0 W/m 6,2 C 9,0 C 6,5 km/h (2 Bft) 99,30 %
15.04.2016 23:00 7,3 C 88 % 1008,5 hPa 0,0 l/m 1,0 km/h (0 Bft) NO 0,00 h 0,000 mm 0,0 UV-I 0 W/m 5,4 C 7,3 C 1,8 km/h (1 Bft) 98,02 %
16.04.2016 00:00 6,2 C 91 % 1008,6 hPa 0,0 l/m 1,0 km/h (0 Bft) NO 0,00 h 0,000 mm 0,0 UV-I 0 W/m 5,0 C 6,2 C 1,9 km/h (1 Bft) 99,32 %
16.04.2016 01:00 6,0 C 92 % 1008,5 hPa 0,0 l/m 1,9 km/h (1 Bft) O-NO 0,00 h 0,000 mm 0,0 UV-I 0 W/m 4,7 C 5,9 C 3,1 km/h (1 Bft) 98,31 %
16.04.2016 02:00 5,3 C 94 % 1008,1 hPa 0,0 l/m 1,6 km/h (1 Bft) W-SW 0,00 h 0,000 mm 0,0 UV-I 0 W/m 4,3 C 5,3 C 2,4 km/h (1 Bft) 99,40 %
16.04.2016 03:00 5,0 C 94 % 1008,0 hPa 0,0 l/m 2,6 km/h (1 Bft) S-SW 0,00 h 0,000 mm 0,0 UV-I 0 W/m 4,2 C 5,0 C 3,6 km/h (1 Bft) 98,70 %
16.04.2016 04:00 4,4 C 95 % 1007,6 hPa 0,0 l/m 2,0 km/h (1 Bft) O 0,00 h 0,000 mm 0,0 UV-I 0 W/m 3,6 C 4,4 C 3,3 km/h (1 Bft) 96,53 %
16.04.2016 05:00 3,9 C 95 % 1006,9 hPa 0,0 l/m 1,7 km/h (1 Bft) SO 0,00 h 0,000 mm 0,0 UV-I 0 W/m 3,2 C 3,9 C 2,7 km/h (1 Bft) 99,23 %
16.04.2016 06:00 3,7 C 96 % 1006,8 hPa 0,0 l/m 1,0 km/h (0 Bft) S-SO 0,02 h 0,000 mm 0,0 UV-I 14 W/m 3,1 C 3,7 C 1,8 km/h (1 Bft) 97,99 %
16.04.2016 07:00 5,4 C 96 % 1006,5 hPa 0,0 l/m 2,1 km/h (1 Bft) NO 0,78 h 0,000 mm 0,0 UV-I 123 W/m 4,7 C 5,4 C 2,9 km/h (1 Bft) 99,33 %
16.04.2016 08:00 8,2 C 90 % 1006,0 hPa 0,0 l/m 5,7 km/h (1 Bft) NO 0,87 h 0,051 mm 0,7 UV-I 260 W/m 6,7 C 8,0 C 7,9 km/h (2 Bft) 98,27 %
16.04.2016 09:00 10,7 C 84 % 1005,3 hPa 0,0 l/m 5,2 km/h (1 Bft) NO 1,00 h 0,127 mm 1,5 UV-I 469 W/m 8,1 C 10,3 C 7,8 km/h (2 Bft) 99,54 %
16.04.2016 10:00 13,1 C 77 % 1004,9 hPa 0,0 l/m 8,7 km/h (2 Bft) NO 1,00 h 0,228 mm 2,5 UV-I 621 W/m 9,0 C 11,6 C 12,8 km/h (3 Bft) 97,74 %
16.04.2016 11:00 15,1 C 70 % 1004,0 hPa 0,0 l/m 12,2 km/h (2 Bft) O-NO 1,00 h 0,331 mm 3,1 UV-I 639 W/m 9,8 C 12,5 C 17,2 km/h (3 Bft) 99,09 %
16.04.2016 12:00 16,0 C 71 % 1004,0 hPa 0,0 l/m 6,5 km/h (2 Bft) NO 0,15 h 0,381 mm 1,7 UV-I 311 W/m 10,7 C 15,4 C 9,8 km/h (2 Bft) 98,89 %
16.04.2016 13:00 16,4 C 69 % 1004,9 hPa 0,0 l/m 4,2 km/h (1 Bft) W 0,08 h 0,177 mm 1,8 UV-I 315 W/m 10,7 C 16,3 C 7,3 km/h (2 Bft) 98,88 %
16.04.2016 14:00 16,5 C 65 % 1006,2 hPa 0,0 l/m 10,1 km/h (2 Bft) W-SW 0,13 h 0,178 mm 1,8 UV-I 328 W/m 9,9 C 14,8 C 14,9 km/h (3 Bft) 98,51 %
16.04.2016 15:00 16,7 C 64 % 1006,8 hPa 0,0 l/m 8,2 km/h (2 Bft) W 0,23 h 0,229 mm 1,4 UV-I 298 W/m 9,8 C 15,6 C 12,8 km/h (3 Bft) 98,84 %
16.04.2016 16:00 17,0 C 62 % 1006,6 hPa 0,0 l/m 4,4 km/h (1 Bft) W 0,32 h 0,203 mm 1,1 UV-I 280 W/m 9,6 C 16,8 C 7,6 km/h (2 Bft) 98,86 %
16.04.2016 17:00 17,2 C 63 % 1006,5 hPa 0,0 l/m 2,0 km/h (1 Bft) NW 0,33 h 0,178 mm 0,6 UV-I 222 W/m 10,1 C 17,2 C 3,7 km/h (1 Bft) 98,74 %
16.04.2016 18:00 17,4 C 62 % 1006,3 hPa 0,0 l/m 1,4 km/h (1 Bft) W-NW 0,75 h 0,127 mm 0,0 UV-I 167 W/m 10,1 C 17,4 C 2,7 km/h (1 Bft) 98,52 %
16.04.2016 19:00 15,7 C 70 % 1006,4 hPa 0,0 l/m 3,3 km/h (1 Bft) O 0,18 h 0,101 mm 0,0 UV-I 31 W/m 10,2 C 15,7 C 4,7 km/h (1 Bft) 98,39 %
16.04.2016 20:00 13,3 C 78 % 1006,6 hPa 0,0 l/m 5,6 km/h (1 Bft) O-SO 0,00 h 0,026 mm 0,0 UV-I 2 W/m 9,6 C 12,9 C 8,0 km/h (2 Bft) 98,20 %
16.04.2016 21:00 13,2 C 76 % 1006,8 hPa 0,0 l/m 6,1 km/h (2 Bft) SO 0,00 h 0,025 mm 0,0 UV-I 0 W/m 9,1 C 12,7 C 9,7 km/h (2 Bft) 99,39 %
16.04.2016 22:00 11,0 C 84 % 1006,7 hPa 0,0 l/m 2,9 km/h (1 Bft) O-NO 0,00 h 0,026 mm 0,0 UV-I 0 W/m 8,4 C 10,9 C 4,4 km/h (1 Bft) 98,19 %
16.04.2016 23:00 10,6 C 86 % 1006,1 hPa 0,0 l/m 6,1 km/h (2 Bft) NO 0,00 h 0,000 mm 0,0 UV-I 0 W/m 8,3 C 10,3 C 8,3 km/h (2 Bft) 98,91 %
17.04.2016 00:00 11,0 C 84 % 1005,1 hPa 0,0 l/m 7,6 km/h (2 Bft) O-NO 0,00 h 0,000 mm 0,0 UV-I 0 W/m 8,3 C 9,9 C 11,0 km/h (2 Bft) 97,84 %
17.04.2016 01:00 10,2 C 86 % 1003,9 hPa 0,0 l/m 7,4 km/h (2 Bft) O-NO 0,00 h 0,025 mm 0,0 UV-I 0 W/m 8,1 C 9,4 C 10,2 km/h (2 Bft) 99,63 %
17.04.2016 02:00 9,5 C 88 % 1002,7 hPa 0,0 l/m 7,6 km/h (2 Bft) O-NO 0,00 h 0,026 mm 0,0 UV-I 0 W/m 7,6 C 8,5 C 10,7 km/h (2 Bft) 97,91 %
17.04.2016 03:00 8,3 C 92 % 1001,8 hPa 0,0 l/m 7,2 km/h (2 Bft) O-NO 0,00 h 0,000 mm 0,0 UV-I 0 W/m 7,0 C 7,3 C 10,4 km/h (2 Bft) 99,09 %
17.04.2016 04:00 7,4 C 94 % 1001,3 hPa 0,0 l/m 4,1 km/h (1 Bft) NO 0,00 h 0,000 mm 0,0 UV-I 0 W/m 6,4 C 7,3 C 5,6 km/h (1 Bft) 97,46 %
17.04.2016 05:00 6,5 C 95 % 1001,2 hPa 0,0 l/m 2,1 km/h (1 Bft) S-SW 0,00 h 0,000 mm 0,0 UV-I 0 W/m 5,8 C 6,5 C 3,1 km/h (1 Bft) 99,13 %
17.04.2016 06:00 6,0 C 96 % 1002,0 hPa 0,0 l/m 5,9 km/h (2 Bft) S-SW 0,03 h 0,000 mm 0,0 UV-I 19 W/m 5,5 C 5,2 C 8,1 km/h (2 Bft) 97,86 %
17.04.2016 07:00 8,2 C 93 % 1004,8 hPa 0,0 l/m 17,8 km/h (3 Bft) W-SW 0,77 h 0,000 mm 0,0 UV-I 123 W/m 7,1 C 1,8 C 23,6 km/h (4 Bft) 99,24 %
17.04.2016 08:00 12,0 C 82 % 1006,5 hPa 0,0 l/m 15,8 km/h (3 Bft) W-SW 0,75 h 0,076 mm 0,8 UV-I 257 W/m 9,0 C 7,4 C 22,3 km/h (4 Bft) 97,03 %
17.04.2016 09:00 14,0 C 73 % 1007,3 hPa 0,0 l/m 13,3 km/h (3 Bft) W-SW 0,97 h 0,152 mm 1,6 UV-I 475 W/m 9,2 C 10,8 C 19,7 km/h (3 Bft) 98,64 %
17.04.2016 10:00 15,1 C 69 % 1007,9 hPa 0,0 l/m 11,2 km/h (2 Bft) SW 0,82 h 0,280 mm 2,2 UV-I 467 W/m 9,4 C 12,7 C 15,8 km/h (3 Bft) 97,94 %
17.04.2016 11:00 15,7 C 62 % 1008,2 hPa 0,0 l/m 9,8 km/h (2 Bft) W-SW 0,73 h 0,305 mm 3,1 UV-I 514 W/m 8,5 C 14,0 C 14,9 km/h (3 Bft) 98,64 %
17.04.2016 12:00 16,3 C 61 % 1008,3 hPa 0,0 l/m 7,2 km/h (2 Bft) W-SW 0,68 h 0,330 mm 3,2 UV-I 457 W/m 8,8 C 15,4 C 11,4 km/h (2 Bft) 98,30 %
17.04.2016 13:00 16,4 C 62 % 1008,4 hPa 0,0 l/m 4,0 km/h (1 Bft) NW 0,00 h 0,305 mm 1,6 UV-I 244 W/m 9,1 C 16,2 C 6,8 km/h (2 Bft) 99,35 %
17.04.2016 14:00 16,0 C 64 % 1008,7 hPa 0,0 l/m 4,1 km/h (1 Bft) W-NW 0,00 h 0,152 mm 1,3 UV-I 202 W/m 9,1 C 16,0 C 8,2 km/h (2 Bft) 97,29 %
17.04.2016 15:00 15,5 C 64 % 1008,9 hPa 0,0 l/m 3,6 km/h (1 Bft) W 0,00 h 0,127 mm 0,7 UV-I 88 W/m 8,6 C 15,4 C 7,1 km/h (2 Bft) 99,04 %
17.04.2016 16:00 14,3 C 70 % 1009,2 hPa 0,0 l/m 3,8 km/h (1 Bft) NW 0,00 h 0,076 mm 0,0 UV-I 39 W/m 8,8 C 14,3 C 6,9 km/h (2 Bft) 97,50 %
17.04.2016 17:00 13,1 C 78 % 1009,5 hPa 0,0 l/m 2,5 km/h (1 Bft) SW 0,00 h 0,051 mm 0,0 UV-I 33 W/m 9,5 C 13,1 C 4,1 km/h (1 Bft) 99,45 %
17.04.2016 18:00 12,7 C 83 % 1009,6 hPa 0,0 l/m 2,3 km/h (1 Bft) S-SW 0,00 h 0,025 mm 0,0 UV-I 27 W/m 9,8 C 12,7 C 3,7 km/h (1 Bft) 98,13 %
17.04.2016 19:00 11,9 C 87 % 1010,2 hPa 0,2 l/m 4,7 km/h (1 Bft) W-SW 0,00 h 0,026 mm 0,0 UV-I 6 W/m 9,8 C 11,9 C 6,8 km/h (2 Bft) 99,09 %
17.04.2016 20:00 11,0 C 91 % 1011,6 hPa 1,0 l/m 10,2 km/h (2 Bft) W 0,00 h 0,000 mm 0,0 UV-I 0 W/m 9,6 C 8,7 C 14,1 km/h (3 Bft) 97,29 %
17.04.2016 21:00 10,1 C 94 % 1012,4 hPa 0,8 l/m 8,8 km/h (2 Bft) W-SW 0,00 h 0,000 mm 0,0 UV-I 0 W/m 9,1 C 8,5 C 12,4 km/h (3 Bft) 99,05 %
17.04.2016 22:00 9,8 C 94 % 1012,8 hPa 0,2 l/m 7,9 km/h (2 Bft) W-SW 0,00 h 0,000 mm 0,0 UV-I 0 W/m 8,9 C 8,7 C 11,5 km/h (2 Bft) 97,89 %
17.04.2016 23:00 9,6 C 95 % 1013,5 hPa 0,8 l/m 6,5 km/h (2 Bft) W-SW 0,00 h 0,000 mm 0,0 UV-I 0 W/m 8,8 C 9,2 C 9,4 km/h (2 Bft) 99,13 %
Min-Datum _ 15.04.16 13.04.16 17.04.16 - 12.04.16 - - - - - 15.04.16 17.04.16 12.04.16 16.04.16
_ Min-Zeit 06:01 15:56 05:09 - 02:03 - - - - - 06:01 06:56 02:03 04:04
Minimum _ 2,3 C 46 % 1001,0 hPa - 0,0 km/h (0 Bft) - - - - - 1,4 C -3,1 C 0,0 km/h (0 Bft) 7,14 %
Max-Datum _ 13.04.16 13.04.16 17.04.16 13.04.16 13.04.16 - 17.04.16 13.04.16 17.04.16 12.04.16 13.04.16 13.04.16 13.04.16 11.04.16
_ Max-Zeit 16:31 02:08 23:56 19:46 19:26 - 12:50 14:00 12:06 11:48 12:38 16:01 19:34 00:00
Maximum _ 19,8 C 97 % 1014,1 hPa 4,6 l/m 43,1 km/h
W-SW (6 Bft)
- 0,08 h 0,432 mm 4,9 UV-I 998 W/m 12,2 C 19,7 C 67,6 km/h
W-SW (8 Bft)
100,00 %
Durchschnitt _ 10,3 C 82 % 1009,0 hPa #11,0 l/m 7,1 km/h (2 Bft) O-NO #42:04 h #16,485 mm 1,7 UV-I 279 W/m 7,0 C 8,9 C 10,3 km/h (2 Bft) 98,59 %